Layton City
, Layton
Last Weather Update:07/30/2011 11:00:00 PM
Date
ETo
ETc
Rain
Irrigation
Req
Temp
Max
Temp
Min
Temp
Avg
Avg RH
Avg Wind
Avg Solar
inches
inches
incehs
inches
F
F
F
%
%
watts/m2
06/01/2011 0.22" 0.18" 0.00" 0.18" 77.3° 46.7° 64.7° 32.2% 5.2 MPH 246.4w/m2
06/02/2011 0.01" 0.01" 0.00" 0.01" 68.4° 63.2° 64.9° 28.2% 6.6 MPH 0.0w/m2
06/03/2011 0.01" 0.00" 0.00" 0.00" 68.0° 48.0° 57.8° 35.6% 7.5 MPH 0.0w/m2
06/04/2011 0.00" 0.00" 0.00" 0.00" 54.7° 46.1° 50.1° 48.8% 1.6 MPH 0.0w/m2
06/05/2011 0.26" 0.21" 0.00" 0.21" 85.3° 49.5° 69.5° 33.2% 3.0 MPH 365.5w/m2
06/06/2011 0.00" 0.00" 0.00" 0.00" 69.6° 53.3° 59.9° 43.3% 1.2 MPH 5.1w/m2
06/07/2011 0.17" 0.14" 0.00" 0.14" 71.3° 47.6° 60.3° 47.7% 2.4 MPH 256.5w/m2
06/08/2011 0.00" 0.00" 0.00" 0.00" 62.5° 59.2° 60.9° 44.9% 1.8 MPH 0.1w/m2
06/09/2011 0.17" 0.14" 0.02" 0.12" 65.7° 45.4° 55.9° 58.0% 2.8 MPH 280.8w/m2
06/10/2011 0.21" 0.17" 0.01" 0.16" 75.5° 46.3° 61.4° 39.7% 2.5 MPH 324.4w/m2
06/11/2011 0.19" 0.15" 0.00" 0.15" 76.1° 55.5° 65.9° 47.5% 2.6 MPH 288.3w/m2
06/12/2011 0.00" 0.00" 0.00" 0.00" 68.5° 65.2° 67.0° 39.6% 2.3 MPH 0.0w/m2
06/13/2011 0.12" 0.10" 0.04" 0.07" 72.7° 53.6° 63.4° 54.8% 2.6 MPH 168.5w/m2
06/14/2011 0.23" 0.18" 0.00" 0.18" 76.7° 52.6° 65.4° 46.3% 2.1 MPH 364.1w/m2
06/15/2011 0.24" 0.19" 0.00" 0.19" 85.1° 54.0° 70.5° 37.2% 2.3 MPH 371.0w/m2
06/16/2011 0.00" 0.00" 0.00" 0.00" 70.1° 64.3° 67.2° 47.1% 5.0 MPH 0.0w/m2
06/17/2011 0.22" 0.18" 0.00" 0.18" 71.0° 43.4° 58.4° 35.9% 2.3 MPH 349.7w/m2
06/18/2011 0.20" 0.16" 0.00" 0.16" 78.9° 49.2° 64.7° 33.3% 2.4 MPH 302.1w/m2
06/19/2011 0.00" 0.00" 0.00" 0.00" 67.4° 62.2° 65.4° 37.9% 5.0 MPH 0.0w/m2
06/20/2011 0.21" 0.17" 0.00" 0.17" 71.7° 47.6° 59.5° 60.5% 2.1 MPH 310.0w/m2
06/21/2011 0.23" 0.18" 0.00" 0.18" 79.6° 50.4° 66.8° 41.8% 1.9 MPH 380.2w/m2
06/22/2011 0.00" 0.00" 0.00" 0.00" 68.0° 60.0° 64.6° 42.4% 1.1 MPH 0.1w/m2
06/23/2011 0.26" 0.21" 0.00" 0.21" 91.0° 59.9° 78.0° 31.5% 2.6 MPH 333.4w/m2
06/24/2011 0.24" 0.20" 0.00" 0.20" 86.1° 60.2° 73.9° 42.0% 2.6 MPH 371.6w/m2
06/25/2011 0.00" 0.00" 0.00" 0.00" 73.6° 67.4° 70.9° 42.7% 3.4 MPH 0.0w/m2
06/26/2011 0.26" 0.21" 0.00" 0.21" 80.1° 60.3° 71.3° 35.3% 3.5 MPH 332.6w/m2
06/27/2011 0.24" 0.19" 0.00" 0.19" 89.5° 56.5° 73.4° 34.9% 1.5 MPH 358.4w/m2
06/28/2011 0.28" 0.23" 0.00" 0.23" 91.7° 63.3° 78.7° 28.2% 5.4 MPH 307.0w/m2
06/29/2011 0.00" 0.00" 0.00" 0.00" 78.0° 74.9° 76.3° 27.9% 2.6 MPH 0.1w/m2
06/30/2011 0.25" 0.20" 0.00" 0.20" 81.6° 59.3° 72.1° 45.2% 3.1 MPH 364.4w/m2
Totals: 4.24" 3.39" 0.07" 3.33" 91.7° 43.4° 66.0° 40.8% 3.0 MPH 202.7w/m2